Time;durP1;ratioP1;P1;durP2;ratioP2;P2;SDS_P1;SDS_P2;PMS_P1;PMS_P2;Temp;Humidity;BMP_temperature;BMP_pressure;BME280_temperature;BME280_humidity;BME280_pressure;Samples;Min_cycle;Max_cycle;Signal;HPM_P1;HPM_P2
2022/07/25 00:00:18;;;;;;;0.00;0.00;;;;;;;13.08;99.92;98332.06;5090116;28;20059;-62
2022/07/25 00:02:46;;;;;;;0.00;0.00;;;;;;;13.00;100.00;98336.97;5109507;28;20052;-61
2022/07/25 00:05:13;;;;;;;0.00;0.00;;;;;;;12.97;100.00;98339.00;5118636;28;20046;-62
2022/07/25 00:07:41;;;;;;;0.00;0.00;;;;;;;12.99;100.00;98334.44;5117642;28;20048;-62
2022/07/25 00:10:10;;;;;;;0.00;0.00;;;;;;;12.99;100.00;98327.38;5118247;28;20112;-62
2022/07/25 00:12:37;;;;;;;0.00;0.00;;;;;;;12.98;100.00;98328.34;5118869;28;20048;-61
2022/07/25 00:15:06;;;;;;;0.00;0.00;;;;;;;12.92;100.00;98326.09;5117718;28;20342;-62
2022/07/25 00:17:35;;;;;;;0.00;0.00;;;;;;;12.91;100.00;98324.44;5119409;28;20047;-62
2022/07/25 00:20:05;;;;;;;0.00;0.00;;;;;;;12.90;100.00;98330.66;5119285;27;20054;-62
2022/07/25 00:22:32;;;;;;;0.00;0.00;;;;;;;12.85;100.00;98329.28;5119282;28;20070;-62
2022/07/25 00:24:59;;;;;;;0.00;0.00;;;;;;;12.73;100.00;98323.03;5117504;28;20108;-62
2022/07/25 00:27:27;;;;;;;0.00;0.00;;;;;;;12.67;100.00;98327.91;5117261;28;20032;-62
2022/07/25 00:29:54;;;;;;;0.00;0.00;;;;;;;12.65;100.00;98322.72;5117219;28;20328;-62
2022/07/25 00:32:22;;;;;;;0.00;0.00;;;;;;;12.64;100.00;98323.69;5117232;28;20040;-62
2022/07/25 00:34:51;;;;;;;0.00;0.00;;;;;;;12.62;100.00;98322.94;5117350;28;20055;-61
2022/07/25 00:37:18;;;;;;;0.00;0.00;;;;;;;12.60;100.00;98322.16;5117917;28;20119;-62
2022/07/25 00:39:46;;;;;;;0.00;0.00;;;;;;;12.56;100.00;98319.88;5118184;27;20047;-62
2022/07/25 00:42:14;;;;;;;0.00;0.00;;;;;;;12.50;100.00;98315.84;5118985;28;20039;-62
2022/07/25 00:44:41;;;;;;;0.00;0.00;;;;;;;12.48;100.00;98308.97;5118946;28;20127;-62
2022/07/25 00:47:09;;;;;;;0.00;0.00;;;;;;;12.57;100.00;98308.34;5118959;28;20040;-62
2022/07/25 00:49:37;;;;;;;0.00;0.00;;;;;;;12.54;100.00;98309.41;5118751;28;20048;-61
2022/07/25 00:52:06;;;;;;;0.00;0.00;;;;;;;12.44;100.00;98318.88;5118778;28;20044;-62
2022/07/25 00:54:34;;;;;;;0.00;0.00;;;;;;;12.40;100.00;98317.41;5118761;28;20047;-62
2022/07/25 00:57:01;;;;;;;0.00;0.00;;;;;;;12.40;100.00;98321.81;5118719;28;20043;-61
2022/07/25 00:59:29;;;;;;;0.00;0.00;;;;;;;12.43;100.00;98321.63;5118582;28;20058;-61
2022/07/25 01:01:56;;;;;;;0.00;0.00;;;;;;;12.45;100.00;98322.38;5118636;28;20423;-61
2022/07/25 01:04:23;;;;;;;0.00;0.00;;;;;;;12.39;100.00;98315.72;5118572;28;20427;-62
2022/07/25 01:06:51;;;;;;;0.00;0.00;;;;;;;12.34;100.00;98309.88;5118484;28;20035;-61
2022/07/25 01:09:21;;;;;;;0.00;0.00;;;;;;;12.37;100.00;98311.50;5118435;28;20044;-61
2022/07/25 01:11:49;;;;;;;0.00;0.00;;;;;;;12.40;100.00;98308.63;5118469;28;20442;-62
2022/07/25 01:14:16;;;;;;;0.00;0.00;;;;;;;12.36;100.00;98309.78;5118336;28;20096;-62
2022/07/25 01:16:44;;;;;;;0.00;0.00;;;;;;;12.33;100.00;98305.56;5118035;28;20048;-61
2022/07/25 01:19:11;;;;;;;0.00;0.00;;;;;;;12.42;100.00;98312.88;5118025;28;20047;-62
2022/07/25 01:21:41;;;;;;;0.00;0.00;;;;;;;12.38;100.00;98305.25;5118053;28;20040;-62
2022/07/25 01:24:10;;;;;;;0.00;0.00;;;;;;;12.32;100.00;98308.28;5118443;28;20044;-62
2022/07/25 01:26:37;;;;;;;0.00;0.00;;;;;;;12.33;100.00;98300.28;5117934;28;20047;-62
2022/07/25 01:29:05;;;;;;;0.00;0.00;;;;;;;12.39;100.00;98294.59;5117804;28;20044;-61
2022/07/25 01:31:33;;;;;;;0.00;0.00;;;;;;;12.49;100.00;98293.00;5118124;28;20039;-62
2022/07/25 01:34:00;;;;;;;0.00;0.00;;;;;;;12.56;100.00;98296.94;5117844;28;20048;-62
2022/07/25 01:36:28;;;;;;;0.00;0.00;;;;;;;12.47;100.00;98297.56;5117016;28;20411;-62
2022/07/25 01:38:57;;;;;;;0.00;0.00;;;;;;;12.30;100.00;98300.47;5117688;28;20334;-62
2022/07/25 01:41:24;;;;;;;0.00;0.00;;;;;;;12.21;100.00;98306.38;5117594;28;20074;-62
2022/07/25 01:43:52;;;;;;;0.00;0.00;;;;;;;12.20;100.00;98296.78;5117943;28;20434;-61
2022/07/25 01:46:19;;;;;;;0.00;0.00;;;;;;;12.24;100.00;98305.34;5117642;28;20039;-62
2022/07/25 01:48:47;;;;;;;0.00;0.00;;;;;;;12.29;100.00;98297.94;5117554;28;20064;-62
2022/07/25 01:51:14;;;;;;;0.00;0.00;;;;;;;12.28;100.00;98304.19;5117494;28;20380;-61
2022/07/25 01:53:41;;;;;;;0.00;0.00;;;;;;;12.21;100.00;98300.25;5117769;28;20043;-61
2022/07/25 01:56:10;;;;;;;0.00;0.00;;;;;;;12.17;100.00;98291.72;5117514;28;20488;-62
2022/07/25 01:58:38;;;;;;;0.00;0.00;;;;;;;12.19;100.00;98296.88;5117686;28;20304;-61
2022/07/25 02:01:06;;;;;;;0.00;0.00;;;;;;;12.18;100.00;98290.75;5117362;28;20122;-62
2022/07/25 02:03:33;;;;;;;0.00;0.00;;;;;;;12.23;100.00;98288.66;5117508;28;20039;-62
2022/07/25 02:06:04;;;;;;;0.00;0.00;;;;;;;12.31;100.00;98291.66;5117185;28;20372;-62
2022/07/25 02:08:32;;;;;;;0.00;0.00;;;;;;;12.35;100.00;98301.03;5117228;28;20055;-62
2022/07/25 02:11:00;;;;;;;0.00;0.00;;;;;;;12.30;100.00;98297.84;5117159;28;20046;-62
2022/07/25 02:13:28;;;;;;;0.00;0.00;;;;;;;12.27;100.00;98291.94;5117308;28;20055;-62
2022/07/25 02:15:56;;;;;;;0.00;0.00;;;;;;;12.17;100.00;98286.44;5117221;28;20047;-61
2022/07/25 02:18:23;;;;;;;0.00;0.00;;;;;;;12.21;100.00;98287.06;5117395;28;20320;-62
2022/07/25 02:20:51;;;;;;;0.00;0.00;;;;;;;12.27;100.00;98286.66;5117056;28;20381;-62
2022/07/25 02:23:18;;;;;;;0.00;0.00;;;;;;;12.27;100.00;98287.53;5117001;28;20075;-61
2022/07/25 02:25:45;;;;;;;0.00;0.00;;;;;;;12.27;100.00;98284.88;5117275;28;20476;-62
2022/07/25 02:28:13;;;;;;;0.00;0.00;;;;;;;12.25;100.00;98288.53;5117515;28;20071;-62
2022/07/25 02:30:42;;;;;;;0.00;0.00;;;;;;;12.25;100.00;98286.75;5116920;28;20108;-62
2022/07/25 02:33:09;;;;;;;0.00;0.00;;;;;;;12.26;100.00;98290.25;5117006;28;20113;-61
2022/07/25 02:35:37;;;;;;;0.00;0.00;;;;;;;12.27;100.00;98297.22;5117067;28;20047;-62
2022/07/25 02:38:04;;;;;;;0.00;0.00;;;;;;;12.27;100.00;98292.81;5116925;28;20032;-63
2022/07/25 02:40:32;;;;;;;0.00;0.00;;;;;;;12.27;100.00;98282.25;5116841;28;20048;-62
2022/07/25 02:42:59;;;;;;;0.00;0.00;;;;;;;12.30;100.00;98291.75;5116862;28;20039;-62
2022/07/25 02:45:26;;;;;;;0.00;0.00;;;;;;;12.28;100.00;98289.22;5116932;28;20043;-62
2022/07/25 02:47:55;;;;;;;0.00;0.00;;;;;;;12.28;100.00;98291.84;5118507;28;20039;-61
2022/07/25 02:50:23;;;;;;;0.00;0.00;;;;;;;12.29;100.00;98297.94;5121008;28;20405;-61
2022/07/25 02:52:50;;;;;;;0.00;0.00;;;;;;;12.23;100.00;98293.91;5121011;28;20050;-62
2022/07/25 02:55:18;;;;;;;0.00;0.00;;;;;;;12.16;100.00;98294.44;5121046;28;20056;-62
2022/07/25 02:57:45;;;;;;;0.00;0.00;;;;;;;12.13;100.00;98297.28;5120847;28;20035;-62
2022/07/25 03:00:14;;;;;;;0.00;0.00;;;;;;;12.18;100.00;98290.75;5120750;28;20423;-61
2022/07/25 03:02:42;;;;;;;0.00;0.00;;;;;;;12.21;100.00;98290.56;5121296;28;20048;-61
2022/07/25 03:05:13;;;;;;;0.00;0.00;;;;;;;12.24;100.00;98287.72;5120680;28;20036;-62
2022/07/25 03:07:42;;;;;;;0.00;0.00;;;;;;;12.32;100.00;98282.78;5120385;28;20044;-62
2022/07/25 03:10:11;;;;;;;0.00;0.00;;;;;;;12.46;100.00;98287.97;5120691;28;20036;-62
2022/07/25 03:12:39;;;;;;;0.00;0.00;;;;;;;12.57;100.00;98281.94;5120446;28;20047;-62
2022/07/25 03:15:09;;;;;;;0.00;0.00;;;;;;;12.62;100.00;98287.75;5120349;28;20135;-62
2022/07/25 03:17:36;;;;;;;0.00;0.00;;;;;;;12.81;100.00;98281.09;5120455;28;20040;-62
2022/07/25 03:20:05;;;;;;;0.00;0.00;;;;;;;13.06;100.00;98275.84;5120485;28;20439;-62
2022/07/25 03:22:34;;;;;;;0.00;0.00;;;;;;;13.41;100.00;98276.00;5120296;27;20043;-62
2022/07/25 03:25:02;;;;;;;0.00;0.00;;;;;;;13.64;100.00;98269.88;5119817;28;20051;-61
2022/07/25 03:27:29;;;;;;;0.00;0.00;;;;;;;13.56;100.00;98262.53;5120265;28;20036;-62
2022/07/25 03:29:57;;;;;;;0.00;0.00;;;;;;;13.48;100.00;98269.31;5119917;28;20134;-62
2022/07/25 03:32:24;;;;;;;0.00;0.00;;;;;;;13.38;100.00;98271.78;5119999;28;20085;-62
2022/07/25 03:34:52;;;;;;;0.00;0.00;;;;;;;13.39;100.00;98267.31;5120236;28;20059;-62
2022/07/25 03:37:19;;;;;;;0.00;0.00;;;;;;;13.45;100.00;98273.03;5119892;28;20032;-61
2022/07/25 03:39:48;;;;;;;0.00;0.00;;;;;;;13.47;100.00;98264.97;5120042;27;20091;-62
2022/07/25 03:42:15;;;;;;;0.00;0.00;;;;;;;13.49;100.00;98263.91;5119969;28;20047;-62
2022/07/25 03:44:43;;;;;;;0.00;0.00;;;;;;;13.54;100.00;98260.91;5119772;28;20044;-62
2022/07/25 03:47:10;;;;;;;0.00;0.00;;;;;;;13.64;100.00;98264.59;5120071;28;20031;-62
2022/07/25 03:49:38;;;;;;;0.00;0.00;;;;;;;13.68;100.00;98263.41;5119868;28;20435;-62
2022/07/25 03:52:06;;;;;;;0.00;0.00;;;;;;;13.86;100.00;98265.56;5119745;28;20040;-62
2022/07/25 03:54:34;;;;;;;0.00;0.00;;;;;;;14.11;100.00;98261.94;5120020;28;20088;-62
2022/07/25 03:57:04;;;;;;;0.00;0.00;;;;;;;14.51;100.00;98261.47;5119607;28;20126;-62
2022/07/25 03:59:31;;;;;;;0.00;0.00;;;;;;;15.16;100.00;98261.69;5118699;28;20047;-62
2022/07/25 04:01:59;;;;;;;0.00;0.00;;;;;;;15.39;98.58;98259.88;5119870;28;20044;-62
2022/07/25 04:04:26;;;;;;;0.00;0.00;;;;;;;15.41;96.55;98260.59;5119752;28;20055;-62
2022/07/25 04:06:54;;;;;;;0.00;0.00;;;;;;;15.60;95.47;98263.47;5119699;28;20126;-63
2022/07/25 04:09:22;;;;;;;0.00;0.00;;;;;;;16.19;93.87;98256.78;5119326;28;20039;-62
2022/07/25 04:11:49;;;;;;;0.00;0.00;;;;;;;16.61;92.03;98255.81;5120063;28;20040;-63
2022/07/25 04:14:18;;;;;;;0.00;0.00;;;;;;;16.55;90.53;98251.88;5119265;28;20063;-63
2022/07/25 04:16:45;;;;;;;0.00;0.00;;;;;;;16.42;90.49;98258.34;5119512;28;20043;-62
2022/07/25 04:19:13;;;;;;;0.00;0.00;;;;;;;16.21;91.60;98255.69;5119193;27;20338;-62
2022/07/25 04:21:40;;;;;;;0.00;0.00;;;;;;;16.21;91.84;98268.09;5117820;28;20339;-62
2022/07/25 04:24:08;;;;;;;0.00;0.00;;;;;;;16.26;92.01;98252.66;5117603;28;20347;-63
2022/07/25 04:26:36;;;;;;;0.00;0.00;;;;;;;16.25;92.42;98258.91;5118693;28;20328;-62
2022/07/25 04:29:03;;;;;;;0.00;0.00;;;;;;;16.32;92.13;98262.75;5119079;28;20430;-63
2022/07/25 04:31:32;;;;;;;0.00;0.00;;;;;;;16.36;91.73;98259.72;5118465;28;20047;-62
2022/07/25 04:34:00;;;;;;;0.00;0.00;;;;;;;16.40;91.12;98263.78;5116994;28;20039;-62
2022/07/25 04:36:28;;;;;;;0.00;0.00;;;;;;;16.35;91.20;98266.00;5116904;28;20054;-62
2022/07/25 04:38:55;;;;;;;0.00;0.00;;;;;;;16.69;90.72;98256.00;5116728;28;20036;-62
2022/07/25 04:41:23;;;;;;;0.00;0.00;;;;;;;17.46;88.38;98260.72;5116892;28;20461;-62
2022/07/25 04:43:50;;;;;;;0.00;0.00;;;;;;;18.12;85.87;98251.19;5117040;28;20068;-61
2022/07/25 04:46:21;;;;;;;0.00;0.00;;;;;;;18.71;82.63;98252.72;5117508;28;20047;-62
2022/07/25 04:48:51;;;;;;;0.00;0.00;;;;;;;19.04;80.07;98254.88;5119027;28;20397;-62
2022/07/25 04:51:19;;;;;;;0.00;0.00;;;;;;;19.24;78.60;98255.66;5118919;28;20460;-62
2022/07/25 04:53:46;;;;;;;0.00;0.00;;;;;;;19.40;77.72;98246.03;5118688;28;20380;-62
2022/07/25 04:56:14;;;;;;;0.00;0.00;;;;;;;19.46;77.68;98247.28;5118740;28;20052;-63
2022/07/25 04:58:42;;;;;;;0.00;0.00;;;;;;;19.42;77.62;98251.25;5118616;28;20079;-62
2022/07/25 05:01:09;;;;;;;0.00;0.00;;;;;;;19.44;77.67;98249.25;5118447;28;20040;-63
2022/07/25 05:03:37;;;;;;;0.00;0.00;;;;;;;19.45;77.91;98248.28;5118404;28;20048;-62
2022/07/25 05:06:06;;;;;;;0.00;0.00;;;;;;;19.43;78.02;98251.09;5118577;28;20039;-62
2022/07/25 05:08:34;;;;;;;0.00;0.00;;;;;;;19.44;77.75;98242.09;5118534;28;20040;-62
2022/07/25 05:11:01;;;;;;;0.00;0.00;;;;;;;19.45;77.81;98245.63;5118210;28;20048;-62
2022/07/25 05:13:29;;;;;;;0.00;0.00;;;;;;;19.51;77.22;98237.00;5118019;28;20039;-62
2022/07/25 05:15:56;;;;;;;0.00;0.00;;;;;;;19.60;77.15;98238.78;5118049;28;20130;-62
2022/07/25 05:18:24;;;;;;;0.00;0.00;;;;;;;19.67;77.61;98235.34;5118272;28;20046;-62
2022/07/25 05:20:51;;;;;;;0.00;0.00;;;;;;;19.77;77.74;98230.81;5118087;28;20093;-62
2022/07/25 05:23:21;;;;;;;0.00;0.00;;;;;;;19.88;77.57;98227.06;5117998;28;20039;-62
2022/07/25 05:25:48;;;;;;;0.00;0.00;;;;;;;19.96;77.05;98221.81;5118124;28;20051;-62
2022/07/25 05:28:16;;;;;;;0.00;0.00;;;;;;;20.02;76.87;98219.38;5117850;28;20354;-61
2022/07/25 05:30:43;;;;;;;0.00;0.00;;;;;;;20.11;76.83;98225.63;5118161;28;20051;-62
2022/07/25 05:33:11;;;;;;;0.00;0.00;;;;;;;20.22;76.02;98220.91;5117962;27;20047;-62
2022/07/25 05:35:38;;;;;;;0.00;0.00;;;;;;;20.34;74.62;98225.03;5117871;28;20443;-62
2022/07/25 05:38:06;;;;;;;0.00;0.00;;;;;;;20.45;73.85;98218.63;5117709;28;20138;-62
2022/07/25 05:40:35;;;;;;;0.00;0.00;;;;;;;20.55;73.28;98217.50;5117848;28;20156;-62
2022/07/25 05:43:02;;;;;;;0.00;0.00;;;;;;;20.70;72.97;98215.94;5117941;28;20043;-63
2022/07/25 05:45:30;;;;;;;0.00;0.00;;;;;;;20.81;73.19;98206.81;5117642;28;20048;-62
2022/07/25 05:47:58;;;;;;;0.00;0.00;;;;;;;20.83;71.92;98209.34;5117771;28;20039;-62
2022/07/25 05:50:26;;;;;;;0.00;0.00;;;;;;;20.89;71.85;98209.56;5117379;28;20078;-63
2022/07/25 05:52:53;;;;;;;0.00;0.00;;;;;;;20.97;71.34;98220.34;5117533;28;20051;-62
2022/07/25 05:55:20;;;;;;;0.00;0.00;;;;;;;21.01;70.31;98207.47;5117432;28;20046;-62
2022/07/25 05:57:49;;;;;;;0.00;0.00;;;;;;;21.05;69.90;98201.66;5117344;28;20040;-62
2022/07/25 06:00:17;;;;;;;0.00;0.00;;;;;;;21.09;69.60;98200.34;5117346;28;20047;-62
2022/07/25 06:02:45;;;;;;;0.00;0.00;;;;;;;21.16;68.82;98201.38;5117494;27;20047;-63
2022/07/25 06:05:12;;;;;;;0.00;0.00;;;;;;;21.23;69.04;98197.06;5117323;28;20124;-62
2022/07/25 06:07:40;;;;;;;0.00;0.00;;;;;;;21.33;68.68;98195.09;5117398;28;20330;-62
2022/07/25 06:10:09;;;;;;;0.00;0.00;;;;;;;21.44;68.27;98192.13;5117469;28;20043;-62
2022/07/25 06:12:36;;;;;;;0.00;0.00;;;;;;;21.55;67.76;98194.50;5117261;28;20063;-62
2022/07/25 06:15:06;;;;;;;0.00;0.00;;;;;;;21.66;66.86;98186.19;5116930;28;20059;-62
2022/07/25 06:17:34;;;;;;;0.00;0.00;;;;;;;21.74;66.71;98185.38;5117395;28;20152;-62
2022/07/25 06:20:02;;;;;;;0.00;0.00;;;;;;;21.85;65.59;98185.06;5117180;28;20051;-62
2022/07/25 06:22:30;;;;;;;0.00;0.00;;;;;;;21.89;65.57;98186.41;5116715;28;20059;-61
2022/07/25 06:24:58;;;;;;;0.00;0.00;;;;;;;22.02;65.70;98176.84;5117428;28;20451;-62
2022/07/25 06:27:25;;;;;;;0.00;0.00;;;;;;;22.09;66.02;98169.00;5116514;28;20449;-62
2022/07/25 06:29:53;;;;;;;0.00;0.00;;;;;;;22.13;66.55;98173.84;5114401;28;20127;-61
2022/07/25 06:32:22;;;;;;;0.00;0.00;;;;;;;22.29;65.44;98173.03;5105087;28;20059;-61
2022/07/25 06:34:49;;;;;;;0.00;0.00;;;;;;;22.41;64.61;98169.88;5098309;28;20043;-62
2022/07/25 06:37:17;;;;;;;0.00;0.00;;;;;;;22.55;65.72;98168.34;5101169;28;20063;-61
2022/07/25 06:39:44;;;;;;;0.00;0.00;;;;;;;22.63;64.94;98176.38;5104537;28;20138;-62
2022/07/25 06:42:12;;;;;;;0.00;0.00;;;;;;;22.61;65.56;98171.16;5102617;28;20060;-62
2022/07/25 06:44:40;;;;;;;0.00;0.00;;;;;;;22.74;63.09;98173.31;5105320;28;20373;-62
2022/07/25 06:47:11;;;;;;;0.00;0.00;;;;;;;22.76;61.53;98163.28;5098815;28;20048;-62
2022/07/25 06:49:43;;;;;;;0.00;0.00;;;;;;;22.91;61.35;98162.38;5104391;28;20343;-60
2022/07/25 06:52:11;;;;;;;0.00;0.00;;;;;;;23.01;61.42;98162.25;5102894;28;20073;-61
2022/07/25 06:54:40;;;;;;;0.00;0.00;;;;;;;23.13;60.63;98158.97;5099974;28;20130;-61
2022/07/25 06:57:09;;;;;;;0.00;0.00;;;;;;;23.24;59.76;98153.22;5099378;28;20056;-61
2022/07/25 06:59:36;;;;;;;0.00;0.00;;;;;;;23.40;58.82;98152.31;5097805;28;20032;-60
2022/07/25 07:02:04;;;;;;;0.00;0.00;;;;;;;23.55;58.76;98147.88;5100822;28;20048;-60
2022/07/25 07:04:31;;;;;;;0.00;0.00;;;;;;;23.80;57.85;98145.88;5102450;28;20051;-60
2022/07/25 07:07:00;;;;;;;0.00;0.00;;;;;;;23.82;56.76;98144.72;5103772;28;20052;-60
2022/07/25 07:09:28;;;;;;;0.00;0.00;;;;;;;23.92;57.39;98152.53;5102211;28;20046;-60
2022/07/25 07:11:55;;;;;;;0.00;0.00;;;;;;;23.98;56.22;98151.81;5094397;28;20097;-60
2022/07/25 07:14:23;;;;;;;0.00;0.00;;;;;;;24.03;56.29;98158.31;5100154;28;20047;-60
2022/07/25 07:16:50;;;;;;;0.00;0.00;;;;;;;23.98;56.22;98152.66;5102744;28;20048;-60
2022/07/25 07:19:18;;;;;;;0.00;0.00;;;;;;;24.04;56.21;98146.56;5101132;28;20369;-60
2022/07/25 07:21:45;;;;;;;0.00;0.00;;;;;;;24.09;56.68;98151.38;5102246;28;20036;-60
2022/07/25 07:24:17;;;;;;;0.00;0.00;;;;;;;24.23;55.64;98148.75;5102728;28;20063;-60
2022/07/25 07:26:44;;;;;;;0.00;0.00;;;;;;;24.25;55.27;98148.59;5094415;28;20048;-60
2022/07/25 07:29:12;;;;;;;0.00;0.00;;;;;;;24.14;54.62;98139.06;5104763;28;20174;-61
2022/07/25 07:31:39;;;;;;;0.00;0.00;;;;;;;24.23;54.03;98138.00;5104739;28;20054;-61
2022/07/25 07:34:07;;;;;;;0.00;0.00;;;;;;;24.03;53.26;98139.50;5103570;28;20039;-61
2022/07/25 07:36:34;;;;;;;0.00;0.00;;;;;;;23.99;55.05;98142.75;5098624;28;20113;-61
2022/07/25 07:39:01;;;;;;;0.00;0.00;;;;;;;24.12;53.22;98138.44;5103632;28;20047;-62
2022/07/25 07:41:30;;;;;;;0.00;0.00;;;;;;;24.20;52.57;98141.06;5104908;28;20051;-61
2022/07/25 07:43:58;;;;;;;0.00;0.00;;;;;;;24.20;53.45;98138.38;5096314;28;20066;-61
2022/07/25 07:46:25;;;;;;;0.00;0.00;;;;;;;24.20;53.13;98137.53;5097475;28;20121;-61
2022/07/25 07:48:53;;;;;;;0.00;0.00;;;;;;;24.35;52.38;98135.72;5104569;28;20447;-61
2022/07/25 07:51:20;;;;;;;0.00;0.00;;;;;;;24.30;51.73;98130.91;5097668;28;20047;-62
2022/07/25 07:56:35;;;;;;;0.00;0.00;;;;;;;24.40;52.32;98126.09;5099694;28;20040;-62
2022/07/25 07:59:03;;;;;;;0.00;0.00;;;;;;;24.58;52.94;98123.09;5097476;28;20454;-62
2022/07/25 08:01:31;;;;;;;0.00;0.00;;;;;;;24.71;51.69;98117.88;5098402;28;20044;-62
2022/07/25 08:03:59;;;;;;;0.00;0.00;;;;;;;24.65;51.89;98124.84;5096710;28;20089;-61
2022/07/25 08:06:27;;;;;;;0.00;0.00;;;;;;;24.67;51.68;98133.59;5093826;28;20050;-61
2022/07/25 08:08:55;;;;;;;0.00;0.00;;;;;;;24.75;51.27;98127.25;5094449;28;20475;-61
2022/07/25 08:11:23;;;;;;;0.00;0.00;;;;;;;24.87;50.95;98125.75;5095335;28;20074;-62
2022/07/25 08:13:52;;;;;;;0.00;0.00;;;;;;;24.75;50.39;98124.56;5095875;28;20076;-62
2022/07/25 08:16:19;;;;;;;0.00;0.00;;;;;;;24.77;49.74;98123.34;5096392;28;20376;-62
2022/07/25 08:18:47;;;;;;;0.00;0.00;;;;;;;24.62;49.23;98124.38;5098030;28;20043;-62
2022/07/25 08:21:14;;;;;;;0.00;0.00;;;;;;;24.62;49.32;98125.19;5097771;28;20446;-61
2022/07/25 08:23:45;;;;;;;0.00;0.00;;;;;;;24.67;50.09;98119.28;5096872;28;20048;-61
2022/07/25 08:26:13;;;;;;;0.00;0.00;;;;;;;24.59;49.86;98119.38;5096962;28;20113;-62
2022/07/25 08:28:40;;;;;;;0.00;0.00;;;;;;;24.56;50.75;98119.72;5096887;28;20335;-62
2022/07/25 08:31:09;;;;;;;0.00;0.00;;;;;;;24.54;50.73;98114.53;5096957;28;20324;-61
2022/07/25 08:33:39;;;;;;;0.00;0.00;;;;;;;24.70;50.53;98117.03;5096853;28;20044;-61
2022/07/25 08:36:09;;;;;;;0.00;0.00;;;;;;;24.67;48.78;98113.91;5097461;28;20048;-61
2022/07/25 08:38:37;;;;;;;0.00;0.00;;;;;;;24.76;49.32;98105.53;5098580;28;20044;-61
2022/07/25 08:41:04;;;;;;;0.00;0.00;;;;;;;24.85;49.99;98111.69;5098093;28;20339;-62
2022/07/25 08:43:33;;;;;;;0.00;0.00;;;;;;;24.99;50.44;98109.00;5098534;28;20059;-61
2022/07/25 08:46:02;;;;;;;0.00;0.00;;;;;;;25.14;51.18;98111.69;5098190;28;20081;-61
2022/07/25 08:48:31;;;;;;;0.00;0.00;;;;;;;25.07;52.38;98108.88;5098375;28;20042;-60
2022/07/25 08:50:59;;;;;;;0.00;0.00;;;;;;;25.09;53.25;98112.25;5098441;28;20043;-61
2022/07/25 08:53:29;;;;;;;0.00;0.00;;;;;;;25.26;52.88;98105.63;5098301;28;20044;-62
2022/07/25 08:55:57;;;;;;;0.00;0.00;;;;;;;25.35;51.96;98101.78;5098337;28;20043;-62
2022/07/25 08:58:24;;;;;;;0.00;0.00;;;;;;;25.33;51.22;98103.88;5098342;28;20044;-62
2022/07/25 09:00:52;;;;;;;0.00;0.00;;;;;;;25.43;51.21;98104.38;5098704;28;20044;-61
2022/07/25 09:03:21;;;;;;;0.00;0.00;;;;;;;25.67;51.77;98105.91;5098626;28;20040;-61
2022/07/25 09:05:51;;;;;;;0.00;0.00;;;;;;;25.93;50.31;98096.25;5098224;28;20465;-62
2022/07/25 09:08:19;;;;;;;0.00;0.00;;;;;;;25.98;49.42;98098.38;5098740;28;20048;-61
2022/07/25 09:10:48;;;;;;;0.00;0.00;;;;;;;26.01;48.56;98098.78;5096166;28;20342;-62
2022/07/25 09:13:17;;;;;;;0.00;0.00;;;;;;;25.92;48.73;98097.28;5098100;28;20040;-62
2022/07/25 09:15:47;;;;;;;0.00;0.00;;;;;;;25.99;49.07;98090.06;5101079;28;20044;-61
2022/07/25 09:18:18;;;;;;;0.00;0.00;;;;;;;26.12;48.04;98084.81;5103519;28;20052;-61
2022/07/25 09:20:47;;;;;;;0.00;0.00;;;;;;;26.13;48.51;98086.47;5098950;28;20436;-60
2022/07/25 09:23:28;;;;;;;0.00;0.00;;;;;;;26.13;48.08;98081.09;5099016;28;20522;-62
2022/07/25 09:26:03;;;;;;;0.00;0.00;;;;;;;26.16;48.51;98080.69;5101484;28;20119;-62
2022/07/25 09:28:31;;;;;;;0.00;0.00;;;;;;;26.22;47.03;98073.69;5106437;28;20040;-60
2022/07/25 09:31:01;;;;;;;0.00;0.00;;;;;;;26.21;47.57;98078.25;5111592;28;20047;-60
2022/07/25 09:33:29;;;;;;;0.00;0.00;;;;;;;26.28;47.42;98076.44;5100428;28;20055;-61
2022/07/25 09:35:57;;;;;;;0.00;0.00;;;;;;;26.31;46.94;98077.91;5104552;28;20044;-62
2022/07/25 09:38:26;;;;;;;0.00;0.00;;;;;;;26.43;47.16;98079.84;5111299;28;20096;-61
2022/07/25 09:40:57;;;;;;;0.00;0.00;;;;;;;26.63;47.72;98078.16;5097216;28;20390;-62
2022/07/25 09:43:36;;;;;;;0.00;0.00;;;;;;;26.75;47.86;98064.13;5096877;28;20043;-61
2022/07/25 09:46:06;;;;;;;0.00;0.00;;;;;;;26.52;46.13;98058.97;5102446;28;20057;-61
2022/07/25 09:48:34;;;;;;;0.00;0.00;;;;;;;26.37;47.10;98055.53;5104214;28;20032;-60
2022/07/25 09:51:03;;;;;;;0.00;0.00;;;;;;;26.30;46.05;98058.19;5106732;28;20052;-62
2022/07/25 09:53:34;;;;;;;0.00;0.00;;;;;;;26.23;46.60;98056.47;5108160;28;20043;-61
2022/07/25 09:56:03;;;;;;;0.00;0.00;;;;;;;26.31;46.42;98056.31;5095406;28;20044;-61
2022/07/25 09:58:30;;;;;;;0.00;0.00;;;;;;;26.46;46.65;98052.50;5105831;28;20040;-61
2022/07/25 10:01:03;;;;;;;0.00;0.00;;;;;;;26.43;46.08;98047.47;5110095;27;20044;-61
2022/07/25 10:03:45;;;;;;;0.00;0.00;;;;;;;26.42;44.99;98042.28;5099085;28;20082;-61
2022/07/25 10:06:20;;;;;;;0.00;0.00;;;;;;;26.46;45.99;98041.69;5103047;28;20044;-61
2022/07/25 10:08:50;;;;;;;0.00;0.00;;;;;;;26.54;46.74;98041.53;5101397;28;20119;-60
2022/07/25 10:11:25;;;;;;;0.00;0.00;;;;;;;26.78;47.33;98034.03;5096681;28;20036;-61
2022/07/25 10:13:54;;;;;;;0.00;0.00;;;;;;;26.90;45.60;98029.72;5099779;28;20066;-61
2022/07/25 10:16:25;;;;;;;0.00;0.00;;;;;;;26.87;46.21;98024.72;5101666;28;20434;-62
2022/07/25 10:18:57;;;;;;;0.00;0.00;;;;;;;26.85;45.87;98027.63;5098344;28;20039;-62
2022/07/25 10:21:27;;;;;;;0.00;0.00;;;;;;;26.82;43.65;98021.78;5101401;28;20040;-60
2022/07/25 10:24:02;;;;;;;0.00;0.00;;;;;;;26.81;44.33;98018.25;5101518;28;20043;-62
2022/07/25 10:26:30;;;;;;;0.00;0.00;;;;;;;26.76;45.22;98031.53;5099237;28;20043;-61
2022/07/25 10:28:58;;;;;;;0.00;0.00;;;;;;;26.93;45.09;98023.94;5101286;28;20040;-61
2022/07/25 10:31:34;;;;;;;0.00;0.00;;;;;;;27.01;44.06;98011.06;5099891;28;20040;-62
2022/07/25 10:34:04;;;;;;;0.00;0.00;;;;;;;26.89;42.75;98012.69;5097950;28;20101;-60
2022/07/25 10:36:42;;;;;;;0.00;0.00;;;;;;;26.82;44.32;98017.22;5101062;28;20035;-61
2022/07/25 10:39:13;;;;;;;0.00;0.00;;;;;;;26.87;43.72;98013.91;5102015;28;20043;-61
2022/07/25 10:41:42;;;;;;;0.00;0.00;;;;;;;27.02;44.45;98011.91;5101012;28;20044;-62
2022/07/25 10:44:13;;;;;;;0.00;0.00;;;;;;;27.21;44.01;98008.41;5107633;28;20043;-61
2022/07/25 10:46:42;;;;;;;0.00;0.00;;;;;;;27.37;44.53;97997.28;5095254;28;20040;-61
2022/07/25 10:49:18;;;;;;;0.00;0.00;;;;;;;27.39;44.80;98006.84;5098954;28;20042;-61
2022/07/25 10:51:56;;;;;;;0.00;0.00;;;;;;;27.39;43.44;97998.75;5100544;28;20056;-60
2022/07/25 10:54:25;;;;;;;0.00;0.00;;;;;;;27.24;43.62;97999.91;5100716;28;20130;-61
2022/07/25 10:56:57;;;;;;;0.00;0.00;;;;;;;27.01;44.02;97991.34;5101631;28;20048;-60
2022/07/25 10:59:26;;;;;;;;;;;;;;;27.12;43.31;97977.25;5102615;28;20044;-60
2022/07/25 11:01:53;;;;;;;;;;;;;;;27.24;44.29;97987.25;5106749;28;19926;-62
2022/07/25 11:04:21;;;;;;;;;;;;;;;27.26;43.10;97985.16;5098420;28;20239;-61
2022/07/25 11:06:48;;;;;;;;;;;;;;;27.18;43.72;97981.81;5100758;28;19973;-61
2022/07/25 11:09:16;;;;;;;;;;;;;;;27.09;43.56;97981.19;5101344;28;19927;-62
2022/07/25 11:11:52;;;;;;;;;;;;;;;27.01;43.59;97978.66;5101287;28;19932;-62
2022/07/25 11:14:20;;;;;;;;;;;;;;;27.06;43.75;97972.63;5096447;28;20008;-62
2022/07/25 11:16:48;;;;;;;;;;;;;;;27.11;43.17;97970.19;5105722;28;19920;-61
2022/07/25 11:19:16;;;;;;;;;;;;;;;27.02;42.96;97965.97;5109851;28;19920;-62
2022/07/25 11:21:44;;;;;;;;;;;;;;;27.09;43.60;97964.13;5107472;28;19988;-62
2022/07/25 11:24:11;;;;;;;;;;;;;;;27.23;44.07;97963.13;5107443;28;19920;-61
2022/07/25 11:26:46;;;;;;;;;;;;;;;27.47;44.45;97957.16;5106880;28;20284;-60
2022/07/25 11:29:19;;;;;;;;;;;;;;;27.58;43.60;97954.69;5100650;28;19928;-61
2022/07/25 11:31:53;;;;;;;;;;;;;;;27.63;44.21;97948.66;5102265;28;20401;-60
2022/07/25 11:34:23;;;;;;;;;;;;;;;27.74;43.73;97950.75;5101045;28;19923;-62
2022/07/25 11:36:50;;;;;;;;;;;;;;;27.56;42.90;97939.72;5111673;28;19920;-62
2022/07/25 11:39:18;;;;;;;;;;;;;;;27.53;43.01;97938.28;5104492;28;19920;-62
2022/07/25 11:41:48;;;;;;;;;;;;;;;27.53;42.90;97932.03;5105832;28;19920;-62